IBM

[ 1308 Thread / 236 Reply ]

Forum Description: IBM certifications support and feedback.

Moderator: hopeyangmei

 Type Author/Online Since Replies Views Last Post
  Power Systems with POWER8 Enterprise V2 C9010-262 Training killtestdumps 2017-5-26 0/945 killtestdumps 2017-5-26 16:29
  IBM certification C2010-555 questions terrence 2017-5-23 0/955 terrence 2017-5-23 17:09
  Latest C2150-606 questions and answers terrence 2017-5-23 0/1009 terrence 2017-5-23 17:07
  IBM Cognos Analytics Author C2090-621 questions terrence 2017-5-19 0/1044 terrence 2017-5-19 18:41
  IBM C9010-260 Exam Questions IBM C2090-260 Training Materials killtestdumps 2017-5-8 0/1016 killtestdumps 2017-5-8 15:36
  Great C2090-424 IBM Practice Exam Killtest killtestdumps 2017-5-8 0/1012 killtestdumps 2017-5-8 13:51
  IBM Certification C9020-567 Practice Exam Killtest killtestdumps 2017-5-8 0/1071 killtestdumps 2017-5-8 13:14
  IBM Enterprise Storage Technical C9020-568 dumps terrence 2017-5-6 0/1048 terrence 2017-5-6 15:50
  IBM Certified Mobile Application Developer C5050-408 dumps terrence 2017-4-29 0/1009 terrence 2017-4-29 16:37
  M2070-740 Exam PDF M2070-740 Questions Answers IBM M2070-740 Sample Questions killtestdumps 2017-4-28 0/1025 killtestdumps 2017-4-28 12:55
  Tivoli Storage Manager V7 C9060-518 dumps addison 2017-4-18 0/1193 addison 2017-4-18 17:53
  IBM Sales Mastery M2070-740 questions addison 2017-4-11 0/1210 addison 2017-4-11 13:39
  IBM Cognos certification C2090-621 questions addison 2017-4-1 0/1189 addison 2017-4-1 16:46
  IBM BPM Application Developer C9550-512 study materials terrence 2017-3-29 0/1168 terrence 2017-3-29 20:01
  IBM DB2 11.1 C2090-600 dumps terrence 2017-3-18 0/1122 terrence 2017-3-18 21:21
  Enterprise Storage V5 certification C9020-568 dumps addison 2017-3-14 0/1011 addison 2017-3-14 23:34
  IBM Midrange Storage C9020-560 questions addison 2017-2-28 0/1034 addison 2017-2-28 22:00
  C9020-562 IBM Storwize Family Technical Solutions V4 dumps terrence 2017-2-25 0/1106 terrence 2017-2-25 21:23
  IBM POWER8 certification C9010-260 dumps addison 2017-2-18 0/1060 addison 2017-2-18 21:20
  Actual C9010-262 questions and answers addison 2017-2-11 0/1075 addison 2017-2-11 18:02
返回顶部
CopyRight © 2009 CCNA Live

Powered by Discuz! 7.2 © 2008 Comsenz Inc.

Contact Us - Clear Cookies - Stats - Archiver - WAP

GMT+8, 2018-6-21 16:09.